createdAt,value
2019-02-02T00:01:16.548Z,35.80
2019-02-02T00:03:44.323Z,33.60
2019-02-02T00:06:11.858Z,37.03
2019-02-02T00:08:40.440Z,34.53
2019-02-02T00:11:08.008Z,35.27
2019-02-02T00:13:36.746Z,34.87
2019-02-02T00:16:05.003Z,35.30
2019-02-02T00:18:32.595Z,36.30
2019-02-02T00:21:00.247Z,33.97
2019-02-02T00:23:29.198Z,35.47
2019-02-02T00:25:58.706Z,35.60
2019-02-02T00:28:26.238Z,37.00
2019-02-02T00:30:53.762Z,34.17
2019-02-02T00:33:21.336Z,33.80
2019-02-02T00:35:48.908Z,34.87
2019-02-02T00:38:16.471Z,31.87
2019-02-02T00:40:44.041Z,35.27
2019-02-02T00:43:11.564Z,34.50
2019-02-02T00:45:39.141Z,34.90
2019-02-02T00:48:06.807Z,32.03
2019-02-02T00:50:34.296Z,34.23
2019-02-02T00:53:01.767Z,34.90
2019-02-02T00:55:29.477Z,36.43
2019-02-02T00:57:56.997Z,33.17
2019-02-02T01:00:24.939Z,33.37
2019-02-02T01:02:52.457Z,36.73
2019-02-02T01:05:20.507Z,34.73
2019-02-02T01:07:48.255Z,35.90
2019-02-02T01:10:18.750Z,35.13
2019-02-02T01:12:46.493Z,31.83
2019-02-02T01:15:15.796Z,36.20
2019-02-02T01:17:43.259Z,35.00
2019-02-02T01:20:11.846Z,33.63
2019-02-02T01:22:39.884Z,33.70
2019-02-02T01:25:08.827Z,34.77
2019-02-02T01:27:37.035Z,38.37
2019-02-02T01:30:06.694Z,37.07
2019-02-02T01:32:34.223Z,33.97
2019-02-02T01:35:01.679Z,35.73
2019-02-02T01:37:29.134Z,35.77
2019-02-02T01:39:56.607Z,36.10
2019-02-02T01:42:24.258Z,37.20
2019-02-02T01:44:51.892Z,39.90
2019-02-02T01:47:24.250Z,38.17
2019-02-02T01:49:51.760Z,37.03
2019-02-02T01:52:19.368Z,36.70
2019-02-02T01:54:46.923Z,37.07
2019-02-02T01:57:14.468Z,35.47
2019-02-02T01:59:42.168Z,33.33
2019-02-02T02:02:09.707Z,33.70
2019-02-02T02:04:37.309Z,36.40
2019-02-02T02:07:04.983Z,35.10
2019-02-02T02:09:32.494Z,34.43
2019-02-02T02:11:59.958Z,36.50
2019-02-02T02:14:27.489Z,37.10
2019-02-02T02:16:54.887Z,35.20
2019-02-02T02:19:22.535Z,35.57
2019-02-02T02:21:50.258Z,37.03
2019-02-02T02:24:17.810Z,37.90
2019-02-02T02:26:45.435Z,35.10
2019-02-02T02:29:12.932Z,35.60
2019-02-02T02:31:40.558Z,35.90
2019-02-02T02:34:08.213Z,34.93
2019-02-02T02:36:35.771Z,37.93
2019-02-02T02:39:05.767Z,34.83
2019-02-02T02:41:34.217Z,35.10
2019-02-02T02:44:01.812Z,35.67
2019-02-02T02:46:29.451Z,36.00
2019-02-02T02:48:56.933Z,34.90
2019-02-02T02:51:24.450Z,38.03
2019-02-02T02:53:52.042Z,35.80
2019-02-02T02:56:19.597Z,35.73
2019-02-02T02:58:47.070Z,36.33
2019-02-02T03:01:47.191Z,36.03
2019-02-02T03:04:14.766Z,37.57
2019-02-02T03:06:42.416Z,36.00
2019-02-02T03:09:09.891Z,36.13
2019-02-02T03:11:37.474Z,36.60
2019-02-02T03:14:05.034Z,38.07
2019-02-02T03:16:32.480Z,37.90
2019-02-02T03:19:00.158Z,36.37
2019-02-02T03:21:27.669Z,38.60
2019-02-02T03:23:55.205Z,35.30
2019-02-02T03:26:22.755Z,37.73
2019-02-02T03:28:53.651Z,38.77
2019-02-02T03:31:20.360Z,39.63
2019-02-02T03:33:47.760Z,41.73
2019-02-02T03:36:15.382Z,40.23
2019-02-02T03:38:42.990Z,38.83
2019-02-02T03:41:10.524Z,41.83
2019-02-02T03:43:39.312Z,36.60
2019-02-02T03:46:06.773Z,38.37
2019-02-02T03:48:34.227Z,38.50
2019-02-02T03:51:05.772Z,39.67
2019-02-02T03:53:36.975Z,38.30
2019-02-02T03:56:09.034Z,36.20
2019-02-02T04:01:30.105Z,38.47
2019-02-02T04:04:04.689Z,36.87
2019-02-02T04:06:37.407Z,37.40
2019-02-02T04:09:08.717Z,37.47
2019-02-02T04:11:43.271Z,37.83
2019-02-02T04:14:12.110Z,38.87
2019-02-02T04:20:05.506Z,37.70
2019-02-02T04:22:37.069Z,40.30
2019-02-02T04:25:10.184Z,38.40
2019-02-02T04:27:38.922Z,35.80
2019-02-02T04:30:15.615Z,40.37
2019-02-02T04:32:45.420Z,39.43
2019-02-02T04:35:22.010Z,36.47
2019-02-02T04:40:46.419Z,38.70
2019-02-02T04:43:17.973Z,39.00
2019-02-02T04:46:12.472Z,36.00
2019-02-02T04:48:44.131Z,40.40
2019-02-02T04:51:15.542Z,40.40
2019-02-02T04:53:46.102Z,40.23
2019-02-02T04:56:19.096Z,36.43
2019-02-02T04:58:55.126Z,38.80
2019-02-02T05:02:06.022Z,37.57
2019-02-02T05:04:36.554Z,38.10
2019-02-02T05:07:09.544Z,40.47
2019-02-02T05:09:38.609Z,38.33
2019-02-02T05:12:33.234Z,39.57
2019-02-02T05:15:04.450Z,42.73
2019-02-02T05:17:35.518Z,42.83
2019-02-02T05:20:12.314Z,38.87
2019-02-02T05:22:43.198Z,42.10
2019-02-02T05:25:33.224Z,40.83
2019-02-02T05:31:16.866Z,41.00
2019-02-02T05:33:47.796Z,41.80
2019-02-02T05:36:17.851Z,41.88
2019-02-02T05:38:53.656Z,41.50
2019-02-02T05:41:24.387Z,40.57
2019-02-02T05:43:55.278Z,43.60
2019-02-02T05:46:27.334Z,42.30
2019-02-02T05:48:59.398Z,40.93
2019-02-02T05:51:28.290Z,42.17
2019-02-02T05:54:18.378Z,40.57
2019-02-02T05:56:48.503Z,40.50
2019-02-02T05:59:22.300Z,39.37
2019-02-02T06:01:55.401Z,40.67
2019-02-02T06:04:31.869Z,39.90
2019-02-02T06:07:01.881Z,41.53
2019-02-02T06:10:01.806Z,42.93
2019-02-02T06:12:51.683Z,44.00
2019-02-02T06:15:23.036Z,42.40
2019-02-02T06:17:52.230Z,43.17
2019-02-02T06:20:30.543Z,43.77
2019-02-02T06:23:00.868Z,42.10
2019-02-02T06:25:34.679Z,46.07
2019-02-02T06:28:29.444Z,42.57
2019-02-02T06:31:08.041Z,42.87
2019-02-02T06:33:43.545Z,42.07
2019-02-02T06:36:12.330Z,44.00
2019-02-02T06:39:10.099Z,43.70
2019-02-02T06:41:41.557Z,40.47
2019-02-02T06:44:17.291Z,41.27
2019-02-02T06:47:06.671Z,43.90
2019-02-02T06:49:38.414Z,40.40
2019-02-02T06:52:10.172Z,43.73
2019-02-02T06:55:06.425Z,42.77
2019-02-02T07:00:49.265Z,43.37
2019-02-02T07:03:22.557Z,44.73
2019-02-02T07:05:54.722Z,42.63
2019-02-02T07:08:32.830Z,44.57
2019-02-02T07:11:30.598Z,44.20
2019-02-02T07:14:02.465Z,44.27
2019-02-02T07:16:35.344Z,45.27
2019-02-02T07:19:25.752Z,45.00
2019-02-02T07:21:56.781Z,43.50
2019-02-02T07:24:27.106Z,43.97
2019-02-02T07:27:04.999Z,42.38
2019-02-02T07:29:37.791Z,43.70
2019-02-02T07:32:11.188Z,45.83
2019-02-02T07:34:43.967Z,45.50
2019-02-02T07:40:23.643Z,44.43
2019-02-02T07:42:53.523Z,41.67
2019-02-02T07:45:27.756Z,45.60
2019-02-02T07:47:58.097Z,45.63
2019-02-02T07:50:29.000Z,45.43
2019-02-02T07:52:57.582Z,46.47
2019-02-02T07:55:31.139Z,45.47
2019-02-02T07:58:00.007Z,45.27
2019-02-02T08:00:40.952Z,44.83
2019-02-02T08:03:13.457Z,46.80
2019-02-02T08:05:42.145Z,46.30
2019-02-02T08:08:16.950Z,49.27
2019-02-02T08:10:47.728Z,46.17
2019-02-02T08:16:30.751Z,45.10
2019-02-02T08:18:59.235Z,47.07
2019-02-02T08:21:28.535Z,47.20
2019-02-02T08:23:59.789Z,47.70
2019-02-02T08:26:32.157Z,47.30
2019-02-02T08:29:00.917Z,46.47
2019-02-02T08:31:29.532Z,47.13
2019-02-02T08:34:03.314Z,49.37
2019-02-02T08:36:32.222Z,48.80
2019-02-02T08:39:01.016Z,43.50
2019-02-02T08:41:39.097Z,46.83
2019-02-02T08:44:11.386Z,45.13
2019-02-02T08:46:59.330Z,46.53
2019-02-02T08:49:28.318Z,48.43
2019-02-02T08:52:02.295Z,47.10
2019-02-02T08:54:35.724Z,46.10
2019-02-02T08:57:23.686Z,46.67
2019-02-02T08:59:53.471Z,45.47
2019-02-02T09:02:21.853Z,47.00
2019-02-02T09:04:53.302Z,49.37
2019-02-02T09:07:21.678Z,48.10
2019-02-02T09:10:11.274Z,46.63
2019-02-02T09:12:48.651Z,48.60
2019-02-02T09:15:19.796Z,48.77
2019-02-02T09:17:48.071Z,43.83
2019-02-02T09:20:16.721Z,47.27
2019-02-02T09:23:02.634Z,46.20
2019-02-02T09:25:22.301Z,43.60
2019-02-02T09:27:53.364Z,46.50
2019-02-02T09:30:40.169Z,48.00
2019-02-02T09:33:11.459Z,46.90
2019-02-02T09:35:40.507Z,47.10
2019-02-02T09:38:12.210Z,45.83
2019-02-02T09:40:41.016Z,47.57
2019-02-02T09:43:24.386Z,45.90
2019-02-02T09:45:54.703Z,46.73
2019-02-02T09:48:35.189Z,50.30
2019-02-02T09:51:06.076Z,46.50
2019-02-02T09:53:45.660Z,44.70
2019-02-02T09:56:16.180Z,46.83
2019-02-02T09:58:49.338Z,47.80
2019-02-02T10:07:27.392Z,46.73
2019-02-02T10:10:04.685Z,45.50
2019-02-02T10:12:35.820Z,48.00
2019-02-02T10:15:05.836Z,45.63
2019-02-02T10:17:36.580Z,48.10
2019-02-02T10:20:08.952Z,45.80
2019-02-02T10:22:38.758Z,45.27
2019-02-02T10:25:08.980Z,48.97
2019-02-02T10:27:41.975Z,47.70
2019-02-02T10:30:25.012Z,48.17
2019-02-02T10:32:56.145Z,48.70
2019-02-02T10:35:35.675Z,49.73
2019-02-02T10:38:07.031Z,48.60
2019-02-02T10:40:38.074Z,46.30
2019-02-02T10:46:16.712Z,46.27
2019-02-02T10:48:45.592Z,48.73
2019-02-02T10:51:14.295Z,47.83
2019-02-02T10:53:42.853Z,47.60
2019-02-02T10:56:11.379Z,49.70
2019-02-02T10:58:43.221Z,48.77
2019-02-02T11:01:12.113Z,50.93
2019-02-02T11:03:41.088Z,49.70
2019-02-02T11:06:10.278Z,46.33
2019-02-02T11:08:39.153Z,48.43
2019-02-02T11:11:13.260Z,48.10
2019-02-02T11:13:43.224Z,49.33
2019-02-02T11:16:12.839Z,47.43
2019-02-02T11:18:42.025Z,48.47
2019-02-02T11:21:11.018Z,48.63
2019-02-02T11:23:39.588Z,48.57
2019-02-02T11:26:08.404Z,46.93
2019-02-02T11:28:37.119Z,49.80
2019-02-02T11:31:06.370Z,48.03
2019-02-02T11:33:36.059Z,48.57
2019-02-02T11:36:04.954Z,49.00
2019-02-02T11:38:36.310Z,50.20
2019-02-02T11:41:07.752Z,49.87
2019-02-02T11:43:37.563Z,48.77
2019-02-02T11:46:27.890Z,50.80
2019-02-02T11:48:56.554Z,51.20
2019-02-02T11:51:25.231Z,51.87
2019-02-02T11:53:55.237Z,52.30
2019-02-02T11:56:23.742Z,54.83
2019-02-02T11:58:51.999Z,52.10
2019-02-02T12:01:23.244Z,53.10
2019-02-02T12:03:51.643Z,53.87
2019-02-02T12:06:20.412Z,50.70
2019-02-02T12:08:51.557Z,51.30
2019-02-02T12:11:22.645Z,52.43
2019-02-02T12:13:58.201Z,53.50
2019-02-02T12:16:47.104Z,51.07
2019-02-02T12:19:17.348Z,49.63
2019-02-02T12:21:55.023Z,52.60
2019-02-02T12:24:26.435Z,49.37
2019-02-02T12:26:55.935Z,50.67
2019-02-02T12:29:26.311Z,53.17
2019-02-02T12:31:54.699Z,51.03
2019-02-02T12:34:23.100Z,53.73
2019-02-02T12:36:55.561Z,52.17
2019-02-02T12:39:24.111Z,53.50
2019-02-02T12:41:53.724Z,53.97
2019-02-02T12:44:22.403Z,56.80
2019-02-02T12:46:51.113Z,58.40
2019-02-02T12:49:20.881Z,56.40
2019-02-02T12:51:49.222Z,56.30
2019-02-02T12:54:22.174Z,57.90
2019-02-02T12:56:50.454Z,58.10
2019-02-02T12:59:24.851Z,50.47
2019-02-02T13:01:53.405Z,53.97
2019-02-02T13:04:21.679Z,55.67
2019-02-02T13:09:37.900Z,55.57
2019-02-02T13:12:12.122Z,54.00
2019-02-02T13:14:40.744Z,50.10
2019-02-02T13:19:58.000Z,54.70
2019-02-02T13:22:29.061Z,53.13
2019-02-02T13:24:57.645Z,52.20
2019-02-02T13:27:27.288Z,51.53
2019-02-02T13:30:00.883Z,55.90
2019-02-02T13:32:29.568Z,54.00
2019-02-02T13:35:06.038Z,52.57
2019-02-02T13:37:39.210Z,50.97
2019-02-02T13:40:10.519Z,53.17
2019-02-02T13:42:39.164Z,56.50
2019-02-02T13:45:08.442Z,54.00
2019-02-02T13:47:56.511Z,57.40
2019-02-02T13:50:25.549Z,54.87
2019-02-02T13:52:57.564Z,49.60
2019-02-02T13:55:27.270Z,56.47
2019-02-02T13:57:56.145Z,51.33
2019-02-02T14:00:27.001Z,51.60
2019-02-02T14:03:03.182Z,53.70
2019-02-02T14:05:32.452Z,53.40
2019-02-02T14:08:01.244Z,54.30
2019-02-02T14:10:31.168Z,57.20
2019-02-02T14:13:01.799Z,53.70
2019-02-02T14:15:32.836Z,54.37
2019-02-02T14:18:04.695Z,54.37
2019-02-02T14:20:53.050Z,57.13
2019-02-02T14:23:25.196Z,54.33
2019-02-02T14:26:13.230Z,59.90
2019-02-02T14:28:50.803Z,52.70
2019-02-02T14:31:21.986Z,55.87
2019-02-02T14:33:50.885Z,55.97
2019-02-02T14:36:21.406Z,57.23
2019-02-02T14:38:50.189Z,54.80
2019-02-02T14:41:18.774Z,56.67
2019-02-02T14:43:47.339Z,57.50
2019-02-02T14:46:17.062Z,58.80
2019-02-02T14:48:51.188Z,60.10
2019-02-02T14:51:20.081Z,54.97
2019-02-02T14:53:48.893Z,55.30
2019-02-02T14:56:22.976Z,55.87
2019-02-02T14:58:51.456Z,57.03
2019-02-02T15:01:20.175Z,56.23
2019-02-02T15:03:48.674Z,55.80
2019-02-02T15:06:17.190Z,57.40
2019-02-02T15:08:47.536Z,61.33
2019-02-02T15:11:38.329Z,55.93
2019-02-02T15:14:17.355Z,56.67
2019-02-02T15:17:00.589Z,57.80
2019-02-02T15:19:29.213Z,62.40
2019-02-02T15:22:00.111Z,60.30
2019-02-02T15:24:28.700Z,56.87
2019-02-02T15:26:57.088Z,60.83
2019-02-02T15:29:25.332Z,59.93
2019-02-02T15:31:59.374Z,60.80
2019-02-02T15:34:29.990Z,61.10
2019-02-02T15:37:05.887Z,58.57
2019-02-02T15:39:44.773Z,59.27
2019-02-02T15:42:24.607Z,59.50
2019-02-02T15:45:18.233Z,58.77
2019-02-02T15:47:44.150Z,58.47
2019-02-02T15:50:23.806Z,61.57
2019-02-02T15:52:53.502Z,62.67
2019-02-02T15:55:45.433Z,58.63
2019-02-02T15:58:44.841Z,62.43
2019-02-02T16:01:17.050Z,64.00
2019-02-02T16:03:49.988Z,59.83
2019-02-02T16:06:29.137Z,61.27
2019-02-02T16:08:57.706Z,64.40
2019-02-02T16:11:29.028Z,63.70
2019-02-02T16:13:59.643Z,63.70
2019-02-02T16:16:30.786Z,58.40
2019-02-02T16:19:17.245Z,60.77
2019-02-02T16:22:13.843Z,60.40
2019-02-02T16:27:38.127Z,64.23
2019-02-02T16:30:16.869Z,60.50
2019-02-02T16:32:49.387Z,57.60
2019-02-02T16:35:22.888Z,61.00
2019-02-02T16:37:53.628Z,59.07
2019-02-02T16:40:26.511Z,59.10
2019-02-02T16:42:56.329Z,64.27
2019-02-02T16:45:27.060Z,63.37
2019-02-02T16:47:56.597Z,59.70
2019-02-02T16:50:26.279Z,60.73
2019-02-02T16:52:54.704Z,65.80
2019-02-02T16:55:25.494Z,62.67
2019-02-02T16:57:53.903Z,69.35
2019-02-02T17:00:24.328Z,64.93
2019-02-02T17:05:50.240Z,60.40
2019-02-02T17:08:45.242Z,61.80
2019-02-02T17:11:14.200Z,63.23
2019-02-02T17:13:52.467Z,65.90
2019-02-02T17:16:29.006Z,66.90
2019-02-02T17:19:02.299Z,63.80
2019-02-02T17:21:52.182Z,66.77
2019-02-02T17:24:20.946Z,62.60
2019-02-02T17:26:53.870Z,66.43
2019-02-02T17:29:27.971Z,62.70
2019-02-02T17:32:17.595Z,65.37
2019-02-02T17:34:48.240Z,62.53
2019-02-02T17:38:12.781Z,66.57
2019-02-02T17:41:05.968Z,62.90
2019-02-02T17:43:37.429Z,63.40
2019-02-02T17:46:11.832Z,66.23
2019-02-02T17:48:45.292Z,64.17
2019-02-02T17:51:18.009Z,68.03
2019-02-02T17:53:46.897Z,65.13
2019-02-02T17:56:15.532Z,63.27
2019-02-02T17:59:05.899Z,63.10
2019-02-02T18:01:41.116Z,61.57
2019-02-02T18:04:12.314Z,63.73
2019-02-02T18:06:41.460Z,69.10
2019-02-02T18:09:51.717Z,65.90
2019-02-02T18:12:42.630Z,72.43
2019-02-02T18:15:42.914Z,73.23
2019-02-02T18:18:16.502Z,71.30
2019-02-02T18:20:51.759Z,67.57
2019-02-02T18:23:24.483Z,63.83
2019-02-02T18:26:02.433Z,68.07
2019-02-02T18:28:31.275Z,67.60
2019-02-02T18:31:20.591Z,65.10
2019-02-02T18:34:08.573Z,62.37
2019-02-02T18:36:37.183Z,61.50
2019-02-02T18:39:07.387Z,60.53
2019-02-02T18:41:35.061Z,64.67
2019-02-02T18:44:02.665Z,62.33
2019-02-02T18:46:30.633Z,60.27
2019-02-02T18:48:58.474Z,64.80
2019-02-02T18:51:26.981Z,62.00
2019-02-02T18:53:54.771Z,61.47
2019-02-02T18:56:22.355Z,67.77
2019-02-02T18:58:50.262Z,62.17
2019-02-02T19:01:18.104Z,62.67
2019-02-02T19:03:45.780Z,66.50
2019-02-02T19:06:13.503Z,64.50
2019-02-02T19:08:48.820Z,62.60
2019-02-02T19:11:16.715Z,63.80
2019-02-02T19:13:44.520Z,63.90
2019-02-02T19:16:12.439Z,66.97
2019-02-02T19:18:40.363Z,64.30
2019-02-02T19:21:08.252Z,64.57
2019-02-02T19:23:36.057Z,65.00
2019-02-02T19:26:03.981Z,63.37
2019-02-02T19:28:39.535Z,68.57
2019-02-02T19:31:01.614Z,66.60
2019-02-02T19:33:29.589Z,68.13
2019-02-02T19:35:57.356Z,65.00
2019-02-02T19:38:25.210Z,66.80
2019-02-02T19:40:53.173Z,65.20
2019-02-02T19:43:21.153Z,70.37
2019-02-02T19:45:49.056Z,65.80
2019-02-02T19:48:16.575Z,65.10
2019-02-02T19:50:44.526Z,67.70
2019-02-02T19:53:12.148Z,73.37
2019-02-02T19:55:39.742Z,67.63
2019-02-02T19:58:07.261Z,68.50
2019-02-02T20:00:35.130Z,68.37
2019-02-02T20:03:03.683Z,68.17
2019-02-02T20:05:31.285Z,69.30
2019-02-02T20:07:58.935Z,69.57
2019-02-02T20:10:29.327Z,71.27
2019-02-02T20:12:59.084Z,74.00
2019-02-02T20:15:28.408Z,68.60
2019-02-02T20:18:09.922Z,71.30
2019-02-02T20:20:31.795Z,72.20
2019-02-02T20:23:01.486Z,73.60
2019-02-02T20:25:31.323Z,66.27
2019-02-02T20:28:03.124Z,69.13
2019-02-02T20:30:32.660Z,70.60
2019-02-02T20:33:03.054Z,70.20
2019-02-02T20:35:42.045Z,73.23
2019-02-02T20:38:05.118Z,73.17
2019-02-02T20:40:34.382Z,69.43
2019-02-02T20:43:02.267Z,70.37
2019-02-02T20:45:32.737Z,67.97
2019-02-02T20:48:00.848Z,70.53
2019-02-02T20:50:28.394Z,68.07
2019-02-02T20:52:56.095Z,68.50
2019-02-02T20:55:26.247Z,63.20
2019-02-02T20:57:55.226Z,65.77
2019-02-02T21:00:24.302Z,67.77
2019-02-02T21:02:52.087Z,68.57
2019-02-02T21:05:19.776Z,67.53
2019-02-02T21:07:47.369Z,72.60
2019-02-02T21:10:16.784Z,69.20
2019-02-02T21:12:44.401Z,67.40
2019-02-02T21:15:12.076Z,67.50
2019-02-02T21:17:40.042Z,65.40
2019-02-02T21:20:10.970Z,70.47
2019-02-02T21:22:38.815Z,65.37
2019-02-02T21:25:07.394Z,69.00
2019-02-02T21:27:35.198Z,72.07
2019-02-02T21:30:04.308Z,70.60
2019-02-02T21:32:33.074Z,67.00
2019-02-02T21:35:00.744Z,71.33
2019-02-02T21:37:28.370Z,68.27
2019-02-02T21:39:56.107Z,70.03
2019-02-02T21:42:23.679Z,64.40
2019-02-02T21:44:51.538Z,66.73
2019-02-02T21:47:19.053Z,65.27
2019-02-02T21:49:46.571Z,70.97
2019-02-02T21:52:14.289Z,69.20
2019-02-02T21:54:42.271Z,66.07
2019-02-02T21:57:09.891Z,68.90
2019-02-02T21:59:38.555Z,70.50
2019-02-02T22:02:06.021Z,64.87
2019-02-02T22:04:33.747Z,64.57
2019-02-02T22:07:01.307Z,63.97
2019-02-02T22:09:29.258Z,62.87
2019-02-02T22:11:56.912Z,64.13
2019-02-02T22:14:24.439Z,61.40
2019-02-02T22:16:52.042Z,62.53
2019-02-02T22:19:19.703Z,63.20
2019-02-02T22:21:47.290Z,64.73
2019-02-02T22:24:15.366Z,60.80
2019-02-02T22:26:42.940Z,63.53
2019-02-02T22:29:10.802Z,61.43
2019-02-02T22:31:38.454Z,58.93
2019-02-02T22:34:06.058Z,64.10
2019-02-02T22:36:33.778Z,57.93
2019-02-02T22:39:02.009Z,61.53
2019-02-02T22:41:31.386Z,60.93
2019-02-02T22:43:58.960Z,62.27
2019-02-02T22:46:26.675Z,58.10
2019-02-02T22:48:54.238Z,59.80
2019-02-02T22:51:21.868Z,54.40
2019-02-02T22:53:49.597Z,57.33
2019-02-02T22:56:17.156Z,61.10
2019-02-02T22:58:44.663Z,58.33
2019-02-02T23:01:27.261Z,60.10
2019-02-02T23:04:10.426Z,59.70
2019-02-02T23:07:05.174Z,57.00
2019-02-02T23:10:24.457Z,57.80
2019-02-02T23:13:20.979Z,53.90
2019-02-02T23:16:26.452Z,56.23
2019-02-02T23:18:55.082Z,55.70
2019-02-02T23:21:23.040Z,56.47
2019-02-02T23:23:50.715Z,64.20
2019-02-02T23:26:18.375Z,57.13
2019-02-02T23:28:45.979Z,62.60
2019-02-02T23:31:13.851Z,56.00
2019-02-02T23:33:41.666Z,55.80
2019-02-02T23:36:09.353Z,59.73
2019-02-02T23:38:36.970Z,59.97
2019-02-02T23:41:04.450Z,58.17
2019-02-02T23:43:32.367Z,57.10
2019-02-02T23:46:00.215Z,56.40
2019-02-02T23:48:28.144Z,55.27
2019-02-02T23:50:55.845Z,52.27
2019-02-02T23:53:23.521Z,57.50
2019-02-02T23:55:51.049Z,51.77
2019-02-02T23:58:18.630Z,53.87
